createdAt,value
2018-08-09T00:00:49.361Z,70.80
2018-08-09T00:03:17.602Z,70.70
2018-08-09T00:05:45.819Z,70.80
2018-08-09T00:08:13.966Z,70.80
2018-08-09T00:10:42.114Z,70.60
2018-08-09T00:13:10.659Z,70.60
2018-08-09T00:15:38.869Z,70.90
2018-08-09T00:18:07.235Z,70.80
2018-08-09T00:20:35.424Z,70.30
2018-08-09T00:23:03.563Z,70.10
2018-08-09T00:25:31.679Z,70.20
2018-08-09T00:27:59.843Z,70.20
2018-08-09T00:30:28.005Z,70.50
2018-08-09T00:32:56.333Z,70.60
2018-08-09T00:35:24.529Z,71.30
2018-08-09T00:37:52.715Z,70.50
2018-08-09T00:40:20.819Z,70.60
2018-08-09T00:42:48.962Z,70.10
2018-08-09T00:45:17.208Z,70.10
2018-08-09T00:47:45.951Z,69.90
2018-08-09T00:50:14.097Z,70.00
2018-08-09T00:52:42.235Z,70.30
2018-08-09T00:55:10.583Z,70.50
2018-08-09T00:57:38.709Z,70.50
2018-08-09T01:00:06.908Z,70.60
2018-08-09T01:02:35.181Z,70.90
2018-08-09T01:05:03.457Z,71.30
2018-08-09T01:07:31.603Z,71.50
2018-08-09T01:09:59.929Z,71.80
2018-08-09T01:12:28.299Z,72.10
2018-08-09T01:14:56.453Z,72.40
2018-08-09T01:17:24.567Z,73.00
2018-08-09T01:19:52.741Z,73.30
2018-08-09T01:22:21.391Z,73.80
2018-08-09T01:24:49.530Z,74.80
2018-08-09T01:27:17.745Z,76.10
2018-08-09T01:29:45.887Z,77.60
2018-08-09T01:32:14.060Z,78.60
2018-08-09T01:34:42.231Z,80.20
2018-08-09T01:37:10.393Z,82.00
2018-08-09T01:39:38.568Z,82.50
2018-08-09T01:42:18.393Z,83.50
2018-08-09T01:44:46.581Z,84.20
2018-08-09T01:47:14.789Z,84.70
2018-08-09T01:49:43.083Z,85.20
2018-08-09T01:52:11.347Z,86.20
2018-08-09T01:54:39.513Z,86.90
2018-08-09T01:57:07.711Z,87.60
2018-08-09T01:59:36.897Z,87.90
2018-08-09T02:02:05.126Z,88.40
2018-08-09T02:04:33.255Z,88.90
2018-08-09T02:07:01.439Z,89.40
2018-08-09T02:09:32.395Z,90.00
2018-08-09T02:12:01.111Z,90.00
2018-08-09T02:14:29.266Z,90.20
2018-08-09T02:16:57.437Z,90.50
2018-08-09T02:19:25.562Z,90.90
2018-08-09T02:21:53.712Z,90.90
2018-08-09T02:24:21.864Z,91.20
2018-08-09T02:26:50.009Z,91.50
2018-08-09T02:29:18.130Z,91.70
2018-08-09T02:31:46.319Z,91.80
2018-08-09T02:34:14.523Z,91.90
2018-08-09T02:36:42.739Z,92.00
2018-08-09T02:39:11.343Z,92.50
2018-08-09T02:41:39.621Z,92.30
2018-08-09T02:44:07.969Z,92.40
2018-08-09T02:46:36.392Z,92.60
2018-08-09T02:49:04.535Z,92.70
2018-08-09T02:51:32.701Z,93.00
2018-08-09T02:54:00.839Z,93.10
2018-08-09T02:56:29.107Z,93.40
2018-08-09T02:58:57.679Z,93.60
2018-08-09T03:01:25.829Z,93.60
2018-08-09T03:03:53.937Z,93.80
2018-08-09T03:06:22.123Z,94.00
2018-08-09T03:08:50.485Z,93.80
2018-08-09T03:11:18.621Z,93.80
2018-08-09T03:13:47.081Z,94.00
2018-08-09T03:16:15.256Z,94.10
2018-08-09T03:18:43.387Z,94.20
2018-08-09T03:21:11.664Z,94.40
2018-08-09T03:23:39.845Z,94.60
2018-08-09T03:26:08.035Z,94.90
2018-08-09T03:28:36.260Z,94.80
2018-08-09T03:31:04.461Z,95.00
2018-08-09T03:33:32.603Z,95.00
2018-08-09T03:36:00.726Z,95.20
2018-08-09T03:38:28.948Z,95.30
2018-08-09T03:40:57.203Z,95.30
2018-08-09T03:43:25.409Z,95.30
2018-08-09T03:45:53.664Z,95.40
2018-08-09T03:48:21.902Z,95.40
2018-08-09T03:50:50.102Z,95.50
2018-08-09T03:53:18.317Z,95.60
2018-08-09T03:55:46.535Z,95.50
2018-08-09T03:58:14.893Z,95.40
2018-08-09T04:00:43.270Z,95.60
2018-08-09T04:03:11.418Z,95.60
2018-08-09T04:05:39.565Z,95.70
2018-08-09T04:08:08.786Z,95.70
2018-08-09T04:10:36.936Z,95.80
2018-08-09T04:13:05.183Z,95.70
2018-08-09T04:15:33.344Z,95.70
2018-08-09T04:18:01.727Z,95.70
2018-08-09T04:20:30.168Z,95.60
2018-08-09T04:22:58.318Z,95.60
2018-08-09T04:25:26.636Z,95.60
2018-08-09T04:27:54.883Z,95.50
2018-08-09T04:30:23.087Z,95.50
2018-08-09T04:32:51.314Z,95.50
2018-08-09T04:35:19.553Z,95.70
2018-08-09T04:37:47.945Z,95.40
2018-08-09T04:40:16.108Z,95.30
2018-08-09T04:42:44.286Z,95.30
2018-08-09T04:45:12.560Z,95.20
2018-08-09T04:47:40.868Z,95.10
2018-08-09T04:50:09.296Z,95.00
2018-08-09T04:52:37.420Z,94.90
2018-08-09T04:55:05.584Z,94.60
2018-08-09T04:57:33.876Z,94.50
2018-08-09T05:00:02.011Z,94.40
2018-08-09T05:02:30.228Z,94.10
2018-08-09T05:04:58.538Z,93.80
2018-08-09T05:07:26.746Z,93.60
2018-08-09T05:09:54.885Z,93.20
2018-08-09T05:12:23.184Z,92.40
2018-08-09T05:14:51.342Z,91.70
2018-08-09T05:17:19.543Z,90.70
2018-08-09T05:19:47.705Z,89.50
2018-08-09T05:22:15.887Z,88.00
2018-08-09T05:24:44.025Z,86.80
2018-08-09T05:27:12.137Z,85.80
2018-08-09T05:29:40.278Z,85.10
2018-08-09T05:32:08.541Z,84.50
2018-08-09T05:34:36.744Z,84.20
2018-08-09T05:37:04.904Z,83.30
2018-08-09T05:39:33.152Z,82.40
2018-08-09T05:42:01.301Z,81.60
2018-08-09T05:44:29.454Z,80.90
2018-08-09T05:46:57.688Z,79.70
2018-08-09T05:49:26.096Z,79.80
2018-08-09T05:51:54.246Z,79.30
2018-08-09T05:54:22.447Z,78.80
2018-08-09T05:56:50.700Z,77.80
2018-08-09T05:59:18.857Z,77.70
2018-08-09T06:01:47.185Z,78.00
2018-08-09T06:04:15.346Z,77.70
2018-08-09T06:06:44.116Z,76.10
2018-08-09T06:09:13.178Z,75.70
2018-08-09T06:11:41.328Z,74.90
2018-08-09T06:14:10.276Z,74.50
2018-08-09T06:16:38.450Z,73.20
2018-08-09T06:19:07.137Z,73.40
2018-08-09T06:21:35.350Z,73.10
2018-08-09T06:24:03.529Z,72.10
2018-08-09T06:26:31.757Z,72.00
2018-08-09T06:28:59.944Z,71.90
2018-08-09T06:31:28.342Z,71.60
2018-08-09T06:33:56.556Z,70.70
2018-08-09T06:36:25.187Z,69.70
2018-08-09T06:38:53.388Z,68.90
2018-08-09T06:41:21.532Z,68.90
2018-08-09T06:43:49.812Z,69.30
2018-08-09T06:46:17.965Z,69.10
2018-08-09T06:48:46.767Z,69.00
2018-08-09T06:51:14.926Z,69.20
2018-08-09T06:53:43.182Z,68.70
2018-08-09T06:56:11.417Z,68.90
2018-08-09T06:58:39.633Z,67.40
2018-08-09T07:01:07.845Z,67.60
2018-08-09T07:03:36.150Z,67.00
2018-08-09T07:06:04.499Z,67.70
2018-08-09T07:08:32.635Z,68.10
2018-08-09T07:11:00.931Z,67.50
2018-08-09T07:13:29.189Z,67.30
2018-08-09T07:15:58.512Z,67.00
2018-08-09T07:18:26.707Z,67.00
2018-08-09T07:20:55.203Z,66.60
2018-08-09T07:23:23.378Z,66.50
2018-08-09T07:25:51.560Z,66.90
2018-08-09T07:28:19.828Z,68.00
2018-08-09T07:30:48.076Z,68.60
2018-08-09T07:33:16.207Z,69.00
2018-08-09T07:35:44.567Z,69.30
2018-08-09T07:38:12.742Z,69.70
2018-08-09T07:40:40.947Z,69.40
2018-08-09T07:43:10.187Z,69.50
2018-08-09T07:45:38.475Z,69.30
2018-08-09T07:48:06.676Z,69.30
2018-08-09T07:50:34.905Z,69.80
2018-08-09T07:53:03.182Z,70.20
2018-08-09T07:55:31.423Z,70.80
2018-08-09T07:57:59.688Z,71.10
2018-08-09T08:00:27.966Z,71.70
2018-08-09T08:02:56.106Z,72.00
2018-08-09T08:05:24.414Z,72.00
2018-08-09T08:07:52.637Z,72.20
2018-08-09T08:10:20.974Z,72.50
2018-08-09T08:12:49.159Z,72.60
2018-08-09T08:15:17.353Z,73.20
2018-08-09T08:17:45.551Z,72.70
2018-08-09T08:20:14.005Z,72.80
2018-08-09T08:22:42.346Z,73.40
2018-08-09T08:25:10.547Z,73.80
2018-08-09T08:27:38.680Z,74.50
2018-08-09T08:30:09.862Z,74.30
2018-08-09T08:32:38.458Z,74.90
2018-08-09T08:35:06.740Z,75.00
2018-08-09T08:37:35.144Z,75.10
2018-08-09T08:40:03.332Z,75.00
2018-08-09T08:42:31.449Z,74.70
2018-08-09T08:44:59.634Z,74.90
2018-08-09T08:47:27.842Z,74.30
2018-08-09T08:49:55.984Z,74.80
2018-08-09T08:52:24.203Z,74.60
2018-08-09T08:54:52.388Z,74.60
2018-08-09T08:57:20.568Z,74.20
2018-08-09T08:59:48.770Z,74.30
2018-08-09T09:02:17.052Z,74.20
2018-08-09T09:04:45.294Z,74.40
2018-08-09T09:07:13.506Z,74.10
2018-08-09T09:09:41.757Z,73.90
2018-08-09T09:12:10.015Z,74.20
2018-08-09T09:14:38.196Z,74.70
2018-08-09T09:17:06.390Z,74.70
2018-08-09T09:19:34.698Z,74.50
2018-08-09T09:22:03.274Z,75.00
2018-08-09T09:24:32.195Z,74.90
2018-08-09T09:27:00.373Z,75.00
2018-08-09T09:29:35.166Z,74.50
2018-08-09T09:32:03.425Z,74.80
2018-08-09T09:34:31.822Z,74.60
2018-08-09T09:37:00.060Z,74.70
2018-08-09T09:39:28.286Z,74.30
2018-08-09T09:41:56.506Z,74.00
2018-08-09T09:44:24.802Z,74.20
2018-08-09T09:46:53.030Z,74.00
2018-08-09T09:49:21.341Z,74.30
2018-08-09T09:51:49.644Z,74.60
2018-08-09T09:54:18.027Z,74.80
2018-08-09T09:56:46.464Z,74.80
2018-08-09T09:59:14.616Z,74.30
2018-08-09T10:01:42.795Z,73.90
2018-08-09T10:04:10.988Z,74.00
2018-08-09T10:06:39.211Z,73.60
2018-08-09T10:09:09.910Z,73.20
2018-08-09T10:11:38.270Z,72.60
2018-08-09T10:14:06.570Z,72.50
2018-08-09T10:16:35.030Z,71.50
2018-08-09T10:19:03.257Z,71.50
2018-08-09T10:21:31.624Z,71.50
2018-08-09T10:23:59.749Z,71.40
2018-08-09T10:26:27.984Z,71.80
2018-08-09T10:28:56.098Z,71.50
2018-08-09T10:31:24.415Z,71.70
2018-08-09T10:33:52.569Z,71.90
2018-08-09T10:36:20.739Z,71.60
2018-08-09T10:38:48.890Z,71.30
2018-08-09T10:41:17.034Z,71.30
2018-08-09T10:43:45.261Z,71.00
2018-08-09T10:46:13.748Z,70.80
2018-08-09T10:48:42.068Z,70.20
2018-08-09T10:51:10.211Z,69.70
2018-08-09T10:53:38.332Z,69.10
2018-08-09T10:56:06.522Z,69.30
2018-08-09T10:58:34.744Z,68.10
2018-08-09T11:01:03.110Z,67.60
2018-08-09T11:03:32.012Z,67.70
2018-08-09T11:06:00.180Z,68.10
2018-08-09T11:08:28.360Z,68.20
2018-08-09T11:10:56.673Z,67.90
2018-08-09T11:13:24.782Z,67.30
2018-08-09T11:15:53.084Z,66.50
2018-08-09T11:18:21.253Z,66.00
2018-08-09T11:20:49.548Z,65.80
2018-08-09T11:23:17.934Z,65.90
2018-08-09T11:25:46.109Z,66.00
2018-08-09T11:28:14.254Z,66.30
2018-08-09T11:30:42.488Z,65.40
2018-08-09T11:33:10.730Z,64.80
2018-08-09T11:35:39.146Z,65.00
2018-08-09T11:38:07.288Z,64.90
2018-08-09T11:40:35.465Z,64.90
2018-08-09T11:43:03.686Z,63.50
2018-08-09T11:45:31.792Z,63.80
2018-08-09T11:48:00.195Z,63.70
2018-08-09T11:50:28.364Z,62.70
2018-08-09T11:52:56.519Z,63.00
2018-08-09T11:55:24.662Z,62.90
2018-08-09T11:57:53.178Z,62.50
2018-08-09T12:00:21.371Z,62.80
2018-08-09T12:02:49.534Z,62.30
2018-08-09T12:05:17.804Z,61.90
2018-08-09T12:07:46.040Z,62.00
2018-08-09T12:10:14.380Z,62.20
2018-08-09T12:12:42.520Z,61.70
2018-08-09T12:15:10.839Z,60.80
2018-08-09T12:17:38.982Z,61.20
2018-08-09T12:20:07.436Z,61.40
2018-08-09T12:22:35.610Z,60.90
2018-08-09T12:25:04.011Z,60.80
2018-08-09T12:27:32.240Z,61.10
2018-08-09T12:30:00.659Z,61.30
2018-08-09T12:32:28.795Z,60.00
2018-08-09T12:34:56.953Z,59.60
2018-08-09T12:37:25.164Z,59.90
2018-08-09T12:39:53.512Z,58.80
2018-08-09T12:42:21.829Z,58.90
2018-08-09T12:44:49.955Z,59.50
2018-08-09T12:47:18.094Z,59.40
2018-08-09T12:49:46.345Z,58.40
2018-08-09T12:52:14.648Z,58.90
2018-08-09T12:54:42.885Z,58.60
2018-08-09T12:57:11.101Z,58.30
2018-08-09T12:59:39.401Z,57.20
2018-08-09T13:02:07.641Z,57.00
2018-08-09T13:04:35.835Z,55.80
2018-08-09T13:07:04.137Z,54.50
2018-08-09T13:09:32.307Z,53.80
2018-08-09T13:12:00.482Z,53.80
2018-08-09T13:14:29.299Z,53.90
2018-08-09T13:16:57.483Z,53.80
2018-08-09T13:19:25.723Z,52.70
2018-08-09T13:21:53.873Z,51.40
2018-08-09T13:24:22.626Z,49.60
2018-08-09T13:26:50.789Z,48.90
2018-08-09T13:29:18.943Z,47.40
2018-08-09T13:31:47.167Z,47.10
2018-08-09T13:34:15.346Z,47.10
2018-08-09T13:36:43.516Z,46.80
2018-08-09T13:39:13.471Z,46.60
2018-08-09T13:41:42.579Z,47.20
2018-08-09T13:44:11.060Z,47.10
2018-08-09T13:46:39.185Z,47.30
2018-08-09T13:49:07.311Z,47.00
2018-08-09T13:51:35.503Z,46.70
2018-08-09T13:54:03.689Z,46.80
2018-08-09T13:56:32.005Z,46.40
2018-08-09T13:59:00.194Z,45.80
2018-08-09T14:01:28.370Z,45.90
2018-08-09T14:03:56.656Z,45.70
2018-08-09T14:06:24.811Z,45.70
2018-08-09T14:08:52.943Z,45.80
2018-08-09T14:11:21.056Z,46.00
2018-08-09T14:13:49.307Z,46.20
2018-08-09T14:16:17.660Z,46.50
2018-08-09T14:18:45.855Z,45.70
2018-08-09T14:21:14.059Z,45.90
2018-08-09T14:23:42.242Z,45.90
2018-08-09T14:26:10.433Z,45.20
2018-08-09T14:28:38.643Z,44.80
2018-08-09T14:31:06.797Z,44.90
2018-08-09T14:33:34.929Z,44.70
2018-08-09T14:36:03.142Z,44.10
2018-08-09T14:38:31.304Z,44.20
2018-08-09T14:40:59.488Z,44.30
2018-08-09T14:43:27.691Z,44.70
2018-08-09T14:45:55.928Z,44.50
2018-08-09T14:48:24.870Z,44.90
2018-08-09T14:50:54.259Z,44.10
2018-08-09T14:53:22.475Z,44.20
2018-08-09T14:55:51.704Z,44.40
2018-08-09T14:58:20.062Z,43.80
2018-08-09T15:00:48.331Z,44.00
2018-08-09T15:03:17.348Z,43.90
2018-08-09T15:05:45.873Z,43.70
2018-08-09T15:08:14.379Z,43.50
2018-08-09T15:10:42.746Z,43.70
2018-08-09T15:13:10.932Z,43.90
2018-08-09T15:15:39.212Z,43.80
2018-08-09T15:18:07.410Z,43.80
2018-08-09T15:20:35.546Z,44.30
2018-08-09T15:23:03.686Z,44.30
2018-08-09T15:25:31.870Z,44.50
2018-08-09T15:27:59.998Z,44.20
2018-08-09T15:30:28.132Z,44.30
2018-08-09T15:32:56.328Z,44.20
2018-08-09T15:35:24.510Z,43.80
2018-08-09T15:37:52.676Z,43.10
2018-08-09T15:40:20.828Z,43.50
2018-08-09T15:42:48.942Z,43.10
2018-08-09T15:45:17.181Z,43.30
2018-08-09T15:47:45.572Z,43.40
2018-08-09T15:50:16.106Z,43.80
2018-08-09T15:52:44.411Z,43.80
2018-08-09T15:55:13.725Z,43.80
2018-08-09T15:57:41.842Z,43.50
2018-08-09T16:00:20.515Z,43.50
2018-08-09T16:02:48.622Z,43.70
2018-08-09T16:05:17.519Z,43.90
2018-08-09T16:07:46.042Z,43.30
2018-08-09T16:10:15.307Z,43.20
2018-08-09T16:12:43.628Z,43.30
2018-08-09T16:15:14.002Z,43.10
2018-08-09T16:17:42.582Z,43.10
2018-08-09T16:20:11.500Z,43.10
2018-08-09T16:22:39.722Z,43.50
2018-08-09T16:25:10.828Z,43.50
2018-08-09T16:27:39.152Z,43.10
2018-08-09T16:30:17.850Z,43.10
2018-08-09T16:32:46.062Z,43.60
2018-08-09T16:35:14.458Z,42.80
2018-08-09T16:37:43.710Z,43.40
2018-08-09T16:40:15.573Z,43.40
2018-08-09T16:42:44.247Z,43.30
2018-08-09T16:45:14.022Z,43.60
2018-08-09T16:47:42.372Z,43.90
2018-08-09T16:50:12.621Z,44.10
2018-08-09T16:52:40.794Z,43.90
2018-08-09T16:55:10.685Z,44.30
2018-08-09T16:57:39.016Z,44.40
2018-08-09T17:00:09.935Z,44.70
2018-08-09T17:02:38.753Z,45.00
2018-08-09T17:05:10.219Z,45.50
2018-08-09T17:07:38.560Z,45.30
2018-08-09T17:10:08.413Z,45.20
2018-08-09T17:12:36.570Z,46.00
2018-08-09T17:15:07.569Z,45.70
2018-08-09T17:17:35.767Z,45.80
2018-08-09T17:20:07.525Z,45.60
2018-08-09T17:22:35.750Z,45.80
2018-08-09T17:25:04.095Z,46.00
2018-08-09T17:27:32.241Z,46.10
2018-08-09T17:30:00.420Z,46.30
2018-08-09T17:32:28.835Z,46.30
2018-08-09T17:34:56.995Z,46.60
2018-08-09T17:37:25.533Z,46.80
2018-08-09T17:39:53.626Z,46.70
2018-08-09T17:42:21.934Z,47.00
2018-08-09T17:44:50.542Z,47.10
2018-08-09T17:47:19.435Z,47.10
2018-08-09T17:49:47.577Z,47.20
2018-08-09T17:52:15.744Z,47.30
2018-08-09T17:54:44.056Z,47.40
2018-08-09T17:57:12.207Z,47.70
2018-08-09T17:59:40.346Z,47.60
2018-08-09T18:02:08.514Z,47.80
2018-08-09T18:04:36.699Z,48.20
2018-08-09T18:07:04.821Z,48.40
2018-08-09T18:09:33.484Z,49.20
2018-08-09T18:12:02.507Z,49.30
2018-08-09T18:14:30.655Z,48.90
2018-08-09T18:16:58.825Z,48.20
2018-08-09T18:19:26.987Z,48.20
2018-08-09T18:21:55.242Z,48.10
2018-08-09T18:24:23.413Z,48.50
2018-08-09T18:26:51.685Z,48.50
2018-08-09T18:29:19.940Z,48.60
2018-08-09T18:31:48.070Z,48.60
2018-08-09T18:34:16.274Z,48.60
2018-08-09T18:36:44.398Z,48.60
2018-08-09T18:39:12.664Z,48.10
2018-08-09T18:41:40.795Z,48.60
2018-08-09T18:44:09.156Z,48.70
2018-08-09T18:46:37.344Z,48.60
2018-08-09T18:49:05.523Z,48.80
2018-08-09T18:51:33.773Z,49.40
2018-08-09T18:54:02.004Z,49.10
2018-08-09T18:56:30.851Z,49.20
2018-08-09T18:58:59.290Z,49.30
2018-08-09T19:01:27.540Z,49.50
2018-08-09T19:03:55.788Z,49.80
2018-08-09T19:06:24.029Z,50.00
2018-08-09T19:08:52.245Z,50.20
2018-08-09T19:11:20.921Z,50.40
2018-08-09T19:13:49.171Z,50.60
2018-08-09T19:16:17.329Z,51.00
2018-08-09T19:18:45.505Z,51.40
2018-08-09T19:21:13.698Z,51.70
2018-08-09T19:23:41.941Z,51.90
2018-08-09T19:26:10.209Z,52.10
2018-08-09T19:28:38.453Z,52.30
2018-08-09T19:31:06.706Z,52.30
2018-08-09T19:33:34.951Z,52.60
2018-08-09T19:36:03.141Z,52.70
2018-08-09T19:38:31.449Z,52.90
2018-08-09T19:40:59.625Z,53.20
2018-08-09T19:43:27.905Z,53.30
2018-08-09T19:45:56.083Z,53.60
2018-08-09T19:48:24.406Z,53.70
2018-08-09T19:50:52.640Z,53.80
2018-08-09T19:53:20.964Z,53.90
2018-08-09T19:55:49.149Z,53.90
2018-08-09T19:58:17.349Z,54.00
2018-08-09T20:00:46.899Z,54.00
2018-08-09T20:03:15.088Z,54.60
2018-08-09T20:05:43.236Z,56.20
2018-08-09T20:08:11.402Z,57.60
2018-08-09T20:10:39.533Z,58.70
2018-08-09T20:13:07.837Z,59.90
2018-08-09T20:15:36.000Z,61.10
2018-08-09T20:18:04.311Z,62.80
2018-08-09T20:20:32.612Z,64.60
2018-08-09T20:23:01.001Z,68.30
2018-08-09T20:25:29.142Z,71.50
2018-08-09T20:27:58.785Z,74.40
2018-08-09T20:30:26.921Z,76.80
2018-08-09T20:32:55.099Z,78.50
2018-08-09T20:35:24.062Z,79.70
2018-08-09T20:37:52.535Z,80.20
2018-08-09T20:40:21.974Z,83.10
2018-08-09T20:42:51.115Z,83.60
2018-08-09T20:45:20.638Z,84.70
2018-08-09T20:47:48.807Z,86.20
2018-08-09T20:50:19.645Z,89.50
2018-08-09T20:52:48.739Z,90.60
2018-08-09T20:55:17.085Z,90.50
2018-08-09T20:57:46.013Z,91.00
2018-08-09T21:00:19.000Z,92.10
2018-08-09T21:02:48.513Z,94.60
2018-08-09T21:05:17.420Z,94.10
2018-08-09T21:07:45.579Z,93.80
2018-08-09T21:10:13.941Z,94.70
2018-08-09T21:12:42.117Z,95.10
2018-08-09T21:15:10.302Z,96.00
2018-08-09T21:17:38.611Z,96.90
2018-08-09T21:20:07.151Z,97.90
2018-08-09T21:22:35.279Z,98.00
2018-08-09T21:25:03.654Z,98.80
2018-08-09T21:27:31.796Z,99.20
2018-08-09T21:30:00.051Z,99.00
2018-08-09T21:32:28.973Z,98.80
2018-08-09T21:34:57.095Z,97.90
2018-08-09T21:37:25.323Z,98.40
2018-08-09T21:39:53.539Z,98.20
2018-08-09T21:42:21.641Z,97.10
2018-08-09T21:44:49.829Z,96.80
2018-08-09T21:47:17.980Z,96.80
2018-08-09T21:49:46.142Z,98.00
2018-08-09T21:52:14.303Z,98.60
2018-08-09T21:54:42.485Z,98.90
2018-08-09T21:57:10.589Z,98.80
2018-08-09T21:59:38.834Z,99.00
2018-08-09T22:02:07.067Z,99.10
2018-08-09T22:04:39.553Z,99.10
2018-08-09T22:07:13.057Z,98.80
2018-08-09T22:09:46.923Z,99.30
2018-08-09T22:12:20.747Z,98.60
2018-08-09T22:14:54.453Z,98.50
2018-08-09T22:17:27.921Z,98.30
2018-08-09T22:20:01.583Z,98.40
2018-08-09T22:22:29.730Z,98.50
2018-08-09T22:24:57.943Z,98.40
2018-08-09T22:27:26.083Z,98.70
2018-08-09T22:29:54.392Z,98.70
2018-08-09T22:32:22.501Z,98.40
2018-08-09T22:34:50.621Z,98.50
2018-08-09T22:37:18.850Z,98.70
2018-08-09T22:39:47.019Z,98.70
2018-08-09T22:42:15.318Z,98.40
2018-08-09T22:44:43.510Z,98.10
2018-08-09T22:47:11.807Z,98.00
2018-08-09T22:49:40.007Z,98.10
2018-08-09T22:52:08.285Z,97.90
2018-08-09T22:54:36.439Z,97.90
2018-08-09T22:57:04.695Z,98.10
2018-08-09T22:59:32.988Z,98.10
2018-08-09T23:02:01.200Z,98.10
2018-08-09T23:04:29.523Z,98.30
2018-08-09T23:06:57.808Z,98.30
2018-08-09T23:09:25.976Z,98.30
2018-08-09T23:11:54.182Z,98.40
2018-08-09T23:14:22.456Z,98.40
2018-08-09T23:16:50.598Z,98.40
2018-08-09T23:19:18.769Z,98.40
2018-08-09T23:21:47.039Z,98.30
2018-08-09T23:24:15.361Z,98.30
2018-08-09T23:26:43.504Z,98.30
2018-08-09T23:29:11.655Z,98.40
2018-08-09T23:31:39.814Z,98.30
2018-08-09T23:34:07.977Z,98.40
2018-08-09T23:36:36.117Z,98.50
2018-08-09T23:39:07.981Z,98.40
2018-08-09T23:41:36.191Z,98.20
2018-08-09T23:44:04.339Z,97.90
2018-08-09T23:46:32.604Z,97.80
2018-08-09T23:49:00.751Z,97.30
2018-08-09T23:51:29.774Z,97.30
2018-08-09T23:53:58.025Z,97.40
2018-08-09T23:56:27.758Z,97.30
2018-08-09T23:58:55.957Z,97.20
